sensor_id;sensor_type;location;lat;lon;timestamp;P1;durP1;ratioP1;P2;durP2;ratioP2
17790;SDS011;9019;48.132;-1.210;2023-12-04T00:01:46;7.03;;;4.07;;
17790;SDS011;9019;48.132;-1.210;2023-12-04T00:04:14;7.10;;;3.97;;
17790;SDS011;9019;48.132;-1.210;2023-12-04T00:06:42;5.93;;;4.00;;
17790;SDS011;9019;48.132;-1.210;2023-12-04T00:09:09;6.37;;;3.80;;
17790;SDS011;9019;48.132;-1.210;2023-12-04T00:11:36;6.13;;;4.13;;
17790;SDS011;9019;48.132;-1.210;2023-12-04T00:14:03;5.80;;;4.10;;
17790;SDS011;9019;48.132;-1.210;2023-12-04T00:16:33;5.67;;;3.90;;
17790;SDS011;9019;48.132;-1.210;2023-12-04T00:19:00;6.70;;;4.07;;
17790;SDS011;9019;48.132;-1.210;2023-12-04T00:21:27;6.00;;;3.83;;
17790;SDS011;9019;48.132;-1.210;2023-12-04T00:23:56;5.47;;;3.83;;
17790;SDS011;9019;48.132;-1.210;2023-12-04T00:26:23;5.87;;;3.90;;
17790;SDS011;9019;48.132;-1.210;2023-12-04T00:28:50;6.63;;;4.53;;
17790;SDS011;9019;48.132;-1.210;2023-12-04T00:31:17;5.47;;;3.87;;
17790;SDS011;9019;48.132;-1.210;2023-12-04T00:33:45;7.57;;;4.23;;
17790;SDS011;9019;48.132;-1.210;2023-12-04T00:36:13;5.37;;;3.73;;
17790;SDS011;9019;48.132;-1.210;2023-12-04T00:38:40;5.27;;;3.73;;
17790;SDS011;9019;48.132;-1.210;2023-12-04T00:41:08;6.23;;;4.13;;
17790;SDS011;9019;48.132;-1.210;2023-12-04T00:43:36;5.30;;;3.90;;
17790;SDS011;9019;48.132;-1.210;2023-12-04T00:46:03;7.00;;;3.93;;
17790;SDS011;9019;48.132;-1.210;2023-12-04T00:48:30;5.90;;;4.10;;
17790;SDS011;9019;48.132;-1.210;2023-12-04T00:50:57;5.70;;;4.27;;
17790;SDS011;9019;48.132;-1.210;2023-12-04T00:53:24;5.37;;;4.17;;
17790;SDS011;9019;48.132;-1.210;2023-12-04T00:55:52;5.37;;;3.73;;
17790;SDS011;9019;48.132;-1.210;2023-12-04T00:58:20;7.73;;;4.10;;
17790;SDS011;9019;48.132;-1.210;2023-12-04T01:00:47;5.00;;;3.80;;
17790;SDS011;9019;48.132;-1.210;2023-12-04T01:03:16;5.60;;;4.00;;
17790;SDS011;9019;48.132;-1.210;2023-12-04T01:05:44;6.10;;;4.27;;
17790;SDS011;9019;48.132;-1.210;2023-12-04T01:08:11;6.17;;;4.13;;
17790;SDS011;9019;48.132;-1.210;2023-12-04T01:10:38;5.57;;;3.83;;
17790;SDS011;9019;48.132;-1.210;2023-12-04T01:13:05;6.87;;;3.83;;
17790;SDS011;9019;48.132;-1.210;2023-12-04T01:15:34;6.30;;;4.00;;
17790;SDS011;9019;48.132;-1.210;2023-12-04T01:18:01;6.33;;;4.07;;
17790;SDS011;9019;48.132;-1.210;2023-12-04T01:20:28;6.37;;;4.00;;
17790;SDS011;9019;48.132;-1.210;2023-12-04T01:22:58;6.07;;;4.07;;
17790;SDS011;9019;48.132;-1.210;2023-12-04T01:25:25;6.03;;;4.50;;
17790;SDS011;9019;48.132;-1.210;2023-12-04T01:27:52;5.53;;;4.13;;
17790;SDS011;9019;48.132;-1.210;2023-12-04T01:30:19;5.70;;;3.70;;
17790;SDS011;9019;48.132;-1.210;2023-12-04T01:32:48;5.97;;;4.00;;
17790;SDS011;9019;48.132;-1.210;2023-12-04T01:35:15;6.13;;;4.07;;
17790;SDS011;9019;48.132;-1.210;2023-12-04T01:37:43;4.73;;;3.80;;
17790;SDS011;9019;48.132;-1.210;2023-12-04T01:40:11;5.30;;;3.93;;
17790;SDS011;9019;48.132;-1.210;2023-12-04T01:42:38;5.93;;;4.20;;
17790;SDS011;9019;48.132;-1.210;2023-12-04T01:45:06;7.07;;;4.77;;
17790;SDS011;9019;48.132;-1.210;2023-12-04T01:47:33;6.17;;;4.30;;
17790;SDS011;9019;48.132;-1.210;2023-12-04T01:50:02;7.43;;;4.20;;
17790;SDS011;9019;48.132;-1.210;2023-12-04T01:52:29;6.43;;;4.47;;
17790;SDS011;9019;48.132;-1.210;2023-12-04T01:54:57;6.97;;;4.03;;
17790;SDS011;9019;48.132;-1.210;2023-12-04T01:57:24;6.13;;;4.00;;
17790;SDS011;9019;48.132;-1.210;2023-12-04T01:59:51;7.00;;;4.27;;
17790;SDS011;9019;48.132;-1.210;2023-12-04T02:02:18;6.00;;;3.80;;
17790;SDS011;9019;48.132;-1.210;2023-12-04T02:04:46;6.83;;;4.30;;
17790;SDS011;9019;48.132;-1.210;2023-12-04T02:07:15;7.83;;;4.03;;
17790;SDS011;9019;48.132;-1.210;2023-12-04T02:09:42;5.73;;;4.17;;
17790;SDS011;9019;48.132;-1.210;2023-12-04T02:12:09;8.07;;;4.13;;
17790;SDS011;9019;48.132;-1.210;2023-12-04T02:14:37;6.07;;;4.47;;
17790;SDS011;9019;48.132;-1.210;2023-12-04T02:17:04;7.60;;;4.40;;
17790;SDS011;9019;48.132;-1.210;2023-12-04T02:19:32;7.23;;;4.73;;
17790;SDS011;9019;48.132;-1.210;2023-12-04T02:21:59;6.60;;;4.50;;
17790;SDS011;9019;48.132;-1.210;2023-12-04T02:24:27;6.97;;;4.27;;
17790;SDS011;9019;48.132;-1.210;2023-12-04T02:26:58;7.60;;;4.33;;
17790;SDS011;9019;48.132;-1.210;2023-12-04T02:29:27;6.00;;;4.33;;
17790;SDS011;9019;48.132;-1.210;2023-12-04T02:31:56;7.00;;;4.43;;
17790;SDS011;9019;48.132;-1.210;2023-12-04T02:34:23;6.70;;;4.83;;
17790;SDS011;9019;48.132;-1.210;2023-12-04T02:36:51;7.23;;;4.63;;
17790;SDS011;9019;48.132;-1.210;2023-12-04T02:39:20;6.77;;;4.73;;
17790;SDS011;9019;48.132;-1.210;2023-12-04T02:41:49;6.67;;;4.70;;
17790;SDS011;9019;48.132;-1.210;2023-12-04T02:44:17;6.90;;;4.73;;
17790;SDS011;9019;48.132;-1.210;2023-12-04T02:46:44;6.47;;;4.73;;
17790;SDS011;9019;48.132;-1.210;2023-12-04T02:49:12;8.50;;;5.10;;
17790;SDS011;9019;48.132;-1.210;2023-12-04T02:51:40;7.50;;;4.70;;
17790;SDS011;9019;48.132;-1.210;2023-12-04T02:54:07;6.93;;;4.97;;
17790;SDS011;9019;48.132;-1.210;2023-12-04T02:56:34;6.33;;;4.63;;
17790;SDS011;9019;48.132;-1.210;2023-12-04T02:59:03;8.17;;;4.93;;
17790;SDS011;9019;48.132;-1.210;2023-12-04T03:01:30;8.70;;;5.50;;
17790;SDS011;9019;48.132;-1.210;2023-12-04T03:03:57;8.97;;;5.50;;
17790;SDS011;9019;48.132;-1.210;2023-12-04T03:06:24;9.80;;;5.53;;
17790;SDS011;9019;48.132;-1.210;2023-12-04T03:08:51;8.60;;;5.53;;
17790;SDS011;9019;48.132;-1.210;2023-12-04T03:11:19;7.57;;;4.87;;
17790;SDS011;9019;48.132;-1.210;2023-12-04T03:13:46;9.50;;;5.47;;
17790;SDS011;9019;48.132;-1.210;2023-12-04T03:16:18;7.33;;;5.07;;
17790;SDS011;9019;48.132;-1.210;2023-12-04T03:18:45;9.80;;;5.70;;
17790;SDS011;9019;48.132;-1.210;2023-12-04T03:21:13;7.33;;;5.00;;
17790;SDS011;9019;48.132;-1.210;2023-12-04T03:23:40;8.50;;;5.00;;
17790;SDS011;9019;48.132;-1.210;2023-12-04T03:26:07;7.00;;;5.03;;
17790;SDS011;9019;48.132;-1.210;2023-12-04T03:28:34;8.60;;;5.70;;
17790;SDS011;9019;48.132;-1.210;2023-12-04T03:31:01;6.93;;;5.10;;
17790;SDS011;9019;48.132;-1.210;2023-12-04T03:33:30;7.17;;;5.30;;
17790;SDS011;9019;48.132;-1.210;2023-12-04T03:35:58;7.97;;;5.40;;
17790;SDS011;9019;48.132;-1.210;2023-12-04T03:38:25;9.50;;;5.70;;
17790;SDS011;9019;48.132;-1.210;2023-12-04T03:40:53;8.13;;;5.40;;
17790;SDS011;9019;48.132;-1.210;2023-12-04T03:43:20;7.60;;;5.17;;
17790;SDS011;9019;48.132;-1.210;2023-12-04T03:45:47;9.23;;;4.73;;
17790;SDS011;9019;48.132;-1.210;2023-12-04T03:48:14;7.47;;;5.23;;
17790;SDS011;9019;48.132;-1.210;2023-12-04T03:50:43;7.63;;;4.93;;
17790;SDS011;9019;48.132;-1.210;2023-12-04T03:53:10;8.50;;;5.07;;
17790;SDS011;9019;48.132;-1.210;2023-12-04T03:55:37;7.97;;;5.53;;
17790;SDS011;9019;48.132;-1.210;2023-12-04T03:58:04;6.57;;;4.77;;
17790;SDS011;9019;48.132;-1.210;2023-12-04T04:00:31;7.00;;;5.57;;
17790;SDS011;9019;48.132;-1.210;2023-12-04T04:02:58;7.03;;;4.87;;
17790;SDS011;9019;48.132;-1.210;2023-12-04T04:05:26;6.70;;;5.20;;
17790;SDS011;9019;48.132;-1.210;2023-12-04T04:07:54;8.10;;;4.90;;
17790;SDS011;9019;48.132;-1.210;2023-12-04T04:10:21;6.30;;;4.70;;
17790;SDS011;9019;48.132;-1.210;2023-12-04T04:12:49;7.83;;;4.90;;
17790;SDS011;9019;48.132;-1.210;2023-12-04T04:15:16;8.93;;;4.97;;
17790;SDS011;9019;48.132;-1.210;2023-12-04T04:17:43;8.40;;;4.93;;
17790;SDS011;9019;48.132;-1.210;2023-12-04T04:20:11;7.13;;;5.33;;
17790;SDS011;9019;48.132;-1.210;2023-12-04T04:22:39;8.03;;;5.10;;
17790;SDS011;9019;48.132;-1.210;2023-12-04T04:25:08;8.20;;;5.20;;
17790;SDS011;9019;48.132;-1.210;2023-12-04T04:27:35;7.13;;;4.97;;
17790;SDS011;9019;48.132;-1.210;2023-12-04T04:30:03;7.13;;;5.27;;
17790;SDS011;9019;48.132;-1.210;2023-12-04T04:32:30;7.77;;;5.73;;
17790;SDS011;9019;48.132;-1.210;2023-12-04T04:34:57;9.63;;;5.20;;
17790;SDS011;9019;48.132;-1.210;2023-12-04T04:37:24;7.60;;;4.93;;
17790;SDS011;9019;48.132;-1.210;2023-12-04T04:39:52;7.97;;;5.17;;
17790;SDS011;9019;48.132;-1.210;2023-12-04T04:42:20;8.73;;;4.93;;
17790;SDS011;9019;48.132;-1.210;2023-12-04T04:44:48;7.30;;;5.40;;
17790;SDS011;9019;48.132;-1.210;2023-12-04T04:47:15;8.03;;;5.07;;
17790;SDS011;9019;48.132;-1.210;2023-12-04T04:49:42;7.50;;;4.53;;
17790;SDS011;9019;48.132;-1.210;2023-12-04T04:52:09;8.13;;;5.10;;
17790;SDS011;9019;48.132;-1.210;2023-12-04T04:54:36;8.37;;;5.37;;
17790;SDS011;9019;48.132;-1.210;2023-12-04T04:57:03;6.37;;;4.70;;
17790;SDS011;9019;48.132;-1.210;2023-12-04T04:59:32;6.53;;;5.10;;
17790;SDS011;9019;48.132;-1.210;2023-12-04T05:01:59;11.00;;;5.70;;
17790;SDS011;9019;48.132;-1.210;2023-12-04T05:04:26;8.93;;;4.90;;
17790;SDS011;9019;48.132;-1.210;2023-12-04T05:06:53;6.83;;;4.73;;
17790;SDS011;9019;48.132;-1.210;2023-12-04T05:09:21;8.37;;;4.90;;
17790;SDS011;9019;48.132;-1.210;2023-12-04T05:11:48;6.13;;;4.60;;
17790;SDS011;9019;48.132;-1.210;2023-12-04T05:14:15;7.67;;;4.70;;
17790;SDS011;9019;48.132;-1.210;2023-12-04T05:16:43;8.73;;;5.10;;
17790;SDS011;9019;48.132;-1.210;2023-12-04T05:19:10;7.37;;;4.80;;
17790;SDS011;9019;48.132;-1.210;2023-12-04T05:21:38;6.83;;;4.57;;
17790;SDS011;9019;48.132;-1.210;2023-12-04T05:24:05;6.43;;;4.53;;
17790;SDS011;9019;48.132;-1.210;2023-12-04T05:26:32;7.43;;;4.77;;
17790;SDS011;9019;48.132;-1.210;2023-12-04T05:28:59;6.47;;;3.83;;
17790;SDS011;9019;48.132;-1.210;2023-12-04T05:31:27;8.97;;;3.90;;
17790;SDS011;9019;48.132;-1.210;2023-12-04T05:33:55;11.27;;;4.80;;
17790;SDS011;9019;48.132;-1.210;2023-12-04T05:36:22;10.90;;;4.20;;
17790;SDS011;9019;48.132;-1.210;2023-12-04T05:38:49;8.07;;;4.50;;
17790;SDS011;9019;48.132;-1.210;2023-12-04T05:41:18;7.40;;;4.20;;
17790;SDS011;9019;48.132;-1.210;2023-12-04T05:43:45;10.63;;;4.60;;
17790;SDS011;9019;48.132;-1.210;2023-12-04T05:46:13;9.60;;;4.70;;
17790;SDS011;9019;48.132;-1.210;2023-12-04T05:48:40;6.10;;;4.23;;
17790;SDS011;9019;48.132;-1.210;2023-12-04T05:51:08;9.17;;;5.00;;
17790;SDS011;9019;48.132;-1.210;2023-12-04T05:53:37;6.80;;;5.03;;
17790;SDS011;9019;48.132;-1.210;2023-12-04T05:56:05;9.73;;;4.80;;
17790;SDS011;9019;48.132;-1.210;2023-12-04T05:58:33;7.70;;;5.00;;
17790;SDS011;9019;48.132;-1.210;2023-12-04T06:01:01;9.10;;;4.97;;
17790;SDS011;9019;48.132;-1.210;2023-12-04T06:03:28;8.43;;;5.57;;
17790;SDS011;9019;48.132;-1.210;2023-12-04T06:05:55;11.03;;;5.23;;
17790;SDS011;9019;48.132;-1.210;2023-12-04T06:08:24;7.13;;;4.77;;
17790;SDS011;9019;48.132;-1.210;2023-12-04T06:10:51;5.70;;;4.20;;
17790;SDS011;9019;48.132;-1.210;2023-12-04T06:13:18;8.77;;;5.00;;
17790;SDS011;9019;48.132;-1.210;2023-12-04T06:15:45;8.43;;;4.80;;
17790;SDS011;9019;48.132;-1.210;2023-12-04T06:18:13;8.03;;;5.50;;
17790;SDS011;9019;48.132;-1.210;2023-12-04T06:20:40;8.40;;;5.40;;
17790;SDS011;9019;48.132;-1.210;2023-12-04T06:23:07;7.57;;;4.57;;
17790;SDS011;9019;48.132;-1.210;2023-12-04T06:25:36;8.97;;;4.83;;
17790;SDS011;9019;48.132;-1.210;2023-12-04T06:28:03;8.27;;;4.93;;
17790;SDS011;9019;48.132;-1.210;2023-12-04T06:30:31;7.20;;;4.87;;
17790;SDS011;9019;48.132;-1.210;2023-12-04T06:32:58;8.70;;;5.03;;
17790;SDS011;9019;48.132;-1.210;2023-12-04T06:35:26;7.40;;;5.13;;
17790;SDS011;9019;48.132;-1.210;2023-12-04T06:37:53;9.67;;;4.83;;
17790;SDS011;9019;48.132;-1.210;2023-12-04T06:40:21;9.13;;;5.37;;
17790;SDS011;9019;48.132;-1.210;2023-12-04T06:42:50;10.37;;;4.73;;
17790;SDS011;9019;48.132;-1.210;2023-12-04T06:45:18;9.23;;;5.27;;
17790;SDS011;9019;48.132;-1.210;2023-12-04T06:47:45;9.00;;;4.77;;
17790;SDS011;9019;48.132;-1.210;2023-12-04T06:50:12;8.77;;;5.13;;
17790;SDS011;9019;48.132;-1.210;2023-12-04T06:52:40;8.20;;;4.30;;
17790;SDS011;9019;48.132;-1.210;2023-12-04T06:55:07;12.00;;;5.80;;
17790;SDS011;9019;48.132;-1.210;2023-12-04T06:57:34;11.80;;;5.33;;
17790;SDS011;9019;48.132;-1.210;2023-12-04T07:00:03;12.97;;;5.10;;
17790;SDS011;9019;48.132;-1.210;2023-12-04T07:02:32;7.73;;;4.80;;
17790;SDS011;9019;48.132;-1.210;2023-12-04T07:04:59;10.77;;;4.53;;
17790;SDS011;9019;48.132;-1.210;2023-12-04T07:07:28;10.57;;;5.70;;
17790;SDS011;9019;48.132;-1.210;2023-12-04T07:09:55;10.13;;;4.77;;
17790;SDS011;9019;48.132;-1.210;2023-12-04T07:12:22;9.77;;;4.37;;
17790;SDS011;9019;48.132;-1.210;2023-12-04T07:14:49;9.47;;;4.50;;
17790;SDS011;9019;48.132;-1.210;2023-12-04T07:17:18;9.60;;;4.30;;
17790;SDS011;9019;48.132;-1.210;2023-12-04T07:19:46;7.77;;;4.50;;
17790;SDS011;9019;48.132;-1.210;2023-12-04T07:22:13;10.50;;;4.60;;
17790;SDS011;9019;48.132;-1.210;2023-12-04T07:24:40;12.43;;;4.67;;
17790;SDS011;9019;48.132;-1.210;2023-12-04T07:27:08;10.17;;;4.60;;
17790;SDS011;9019;48.132;-1.210;2023-12-04T07:29:35;11.97;;;4.80;;
17790;SDS011;9019;48.132;-1.210;2023-12-04T07:32:04;11.70;;;5.13;;
17790;SDS011;9019;48.132;-1.210;2023-12-04T07:34:32;9.13;;;4.37;;
17790;SDS011;9019;48.132;-1.210;2023-12-04T07:36:59;9.20;;;4.53;;
17790;SDS011;9019;48.132;-1.210;2023-12-04T07:39:27;13.17;;;4.97;;
17790;SDS011;9019;48.132;-1.210;2023-12-04T07:41:54;10.40;;;5.30;;
17790;SDS011;9019;48.132;-1.210;2023-12-04T07:44:22;14.30;;;5.20;;
17790;SDS011;9019;48.132;-1.210;2023-12-04T07:46:49;10.10;;;5.10;;
17790;SDS011;9019;48.132;-1.210;2023-12-04T07:49:16;11.67;;;5.17;;
17790;SDS011;9019;48.132;-1.210;2023-12-04T07:51:45;12.63;;;5.10;;
17790;SDS011;9019;48.132;-1.210;2023-12-04T07:54:12;9.50;;;4.33;;
17790;SDS011;9019;48.132;-1.210;2023-12-04T07:56:39;10.23;;;4.70;;
17790;SDS011;9019;48.132;-1.210;2023-12-04T07:59:07;9.13;;;4.10;;
17790;SDS011;9019;48.132;-1.210;2023-12-04T08:01:34;10.10;;;4.37;;
17790;SDS011;9019;48.132;-1.210;2023-12-04T08:04:01;12.30;;;4.30;;
17790;SDS011;9019;48.132;-1.210;2023-12-04T08:06:28;11.57;;;4.47;;
17790;SDS011;9019;48.132;-1.210;2023-12-04T08:08:57;15.73;;;4.63;;
17790;SDS011;9019;48.132;-1.210;2023-12-04T08:11:24;8.40;;;4.07;;
17790;SDS011;9019;48.132;-1.210;2023-12-04T08:13:51;12.60;;;3.60;;
17790;SDS011;9019;48.132;-1.210;2023-12-04T08:16:19;8.80;;;3.73;;
17790;SDS011;9019;48.132;-1.210;2023-12-04T08:18:46;10.33;;;4.03;;
17790;SDS011;9019;48.132;-1.210;2023-12-04T08:21:13;8.33;;;3.50;;
17790;SDS011;9019;48.132;-1.210;2023-12-04T08:23:40;9.63;;;3.37;;
17790;SDS011;9019;48.132;-1.210;2023-12-04T08:26:08;7.33;;;3.20;;
17790;SDS011;9019;48.132;-1.210;2023-12-04T08:28:36;9.43;;;3.50;;
17790;SDS011;9019;48.132;-1.210;2023-12-04T08:31:06;9.47;;;3.30;;
17790;SDS011;9019;48.132;-1.210;2023-12-04T08:33:34;7.67;;;3.27;;
17790;SDS011;9019;48.132;-1.210;2023-12-04T08:36:01;7.00;;;3.50;;
17790;SDS011;9019;48.132;-1.210;2023-12-04T08:38:28;7.53;;;3.50;;
17790;SDS011;9019;48.132;-1.210;2023-12-04T08:40:56;9.07;;;3.47;;
17790;SDS011;9019;48.132;-1.210;2023-12-04T08:43:24;6.47;;;3.30;;
17790;SDS011;9019;48.132;-1.210;2023-12-04T08:45:51;10.27;;;3.27;;
17790;SDS011;9019;48.132;-1.210;2023-12-04T08:48:18;11.10;;;3.37;;
17790;SDS011;9019;48.132;-1.210;2023-12-04T08:50:46;11.53;;;3.53;;
17790;SDS011;9019;48.132;-1.210;2023-12-04T08:53:14;8.50;;;3.80;;
17790;SDS011;9019;48.132;-1.210;2023-12-04T08:55:41;7.97;;;3.03;;
17790;SDS011;9019;48.132;-1.210;2023-12-04T08:58:09;8.37;;;3.67;;
17790;SDS011;9019;48.132;-1.210;2023-12-04T09:00:38;10.03;;;3.80;;
17790;SDS011;9019;48.132;-1.210;2023-12-04T09:03:07;9.33;;;3.73;;
17790;SDS011;9019;48.132;-1.210;2023-12-04T09:05:35;10.97;;;3.90;;
17790;SDS011;9019;48.132;-1.210;2023-12-04T09:08:02;10.43;;;3.50;;
17790;SDS011;9019;48.132;-1.210;2023-12-04T09:10:30;8.40;;;3.20;;
17790;SDS011;9019;48.132;-1.210;2023-12-04T09:12:57;9.00;;;3.60;;
17790;SDS011;9019;48.132;-1.210;2023-12-04T09:15:24;11.17;;;3.80;;
17790;SDS011;9019;48.132;-1.210;2023-12-04T09:17:52;8.47;;;3.37;;
17790;SDS011;9019;48.132;-1.210;2023-12-04T09:20:19;7.87;;;3.67;;
17790;SDS011;9019;48.132;-1.210;2023-12-04T09:22:47;7.43;;;3.50;;
17790;SDS011;9019;48.132;-1.210;2023-12-04T09:25:14;8.43;;;3.23;;
17790;SDS011;9019;48.132;-1.210;2023-12-04T09:27:41;10.77;;;4.13;;
17790;SDS011;9019;48.132;-1.210;2023-12-04T09:30:09;9.10;;;3.70;;
17790;SDS011;9019;48.132;-1.210;2023-12-04T09:32:36;10.97;;;4.10;;
17790;SDS011;9019;48.132;-1.210;2023-12-04T09:35:05;7.10;;;3.47;;
17790;SDS011;9019;48.132;-1.210;2023-12-04T09:37:32;11.83;;;3.10;;
17790;SDS011;9019;48.132;-1.210;2023-12-04T09:39:59;14.40;;;3.03;;
17790;SDS011;9019;48.132;-1.210;2023-12-04T09:42:27;11.00;;;3.10;;
17790;SDS011;9019;48.132;-1.210;2023-12-04T09:44:55;9.50;;;2.60;;
17790;SDS011;9019;48.132;-1.210;2023-12-04T09:47:22;11.53;;;2.10;;
17790;SDS011;9019;48.132;-1.210;2023-12-04T09:49:51;11.20;;;2.20;;
17790;SDS011;9019;48.132;-1.210;2023-12-04T09:52:20;9.43;;;2.43;;
17790;SDS011;9019;48.132;-1.210;2023-12-04T09:54:47;11.57;;;2.40;;
17790;SDS011;9019;48.132;-1.210;2023-12-04T09:57:15;8.30;;;2.27;;
17790;SDS011;9019;48.132;-1.210;2023-12-04T09:59:42;5.13;;;2.23;;
17790;SDS011;9019;48.132;-1.210;2023-12-04T10:02:11;5.23;;;2.07;;
17790;SDS011;9019;48.132;-1.210;2023-12-04T10:04:38;5.13;;;2.00;;
17790;SDS011;9019;48.132;-1.210;2023-12-04T10:07:06;7.83;;;2.27;;
17790;SDS011;9019;48.132;-1.210;2023-12-04T10:09:34;5.10;;;1.87;;
17790;SDS011;9019;48.132;-1.210;2023-12-04T10:12:01;9.77;;;3.33;;
17790;SDS011;9019;48.132;-1.210;2023-12-04T10:14:29;6.03;;;3.20;;
17790;SDS011;9019;48.132;-1.210;2023-12-04T10:16:56;9.37;;;4.13;;
17790;SDS011;9019;48.132;-1.210;2023-12-04T10:19:24;11.73;;;5.43;;
17790;SDS011;9019;48.132;-1.210;2023-12-04T10:21:51;12.83;;;5.70;;
17790;SDS011;9019;48.132;-1.210;2023-12-04T10:24:28;11.63;;;5.93;;
17790;SDS011;9019;48.132;-1.210;2023-12-04T10:26:58;11.33;;;5.67;;
17790;SDS011;9019;48.132;-1.210;2023-12-04T10:29:26;8.17;;;4.67;;
17790;SDS011;9019;48.132;-1.210;2023-12-04T10:31:54;9.77;;;4.83;;
17790;SDS011;9019;48.132;-1.210;2023-12-04T10:34:21;10.37;;;4.90;;
17790;SDS011;9019;48.132;-1.210;2023-12-04T10:36:51;10.00;;;4.60;;
17790;SDS011;9019;48.132;-1.210;2023-12-04T10:39:18;8.40;;;3.73;;
17790;SDS011;9019;48.132;-1.210;2023-12-04T10:41:45;10.50;;;3.77;;
17790;SDS011;9019;48.132;-1.210;2023-12-04T10:44:27;7.47;;;3.30;;
17790;SDS011;9019;48.132;-1.210;2023-12-04T10:46:55;11.33;;;2.63;;
17790;SDS011;9019;48.132;-1.210;2023-12-04T10:49:25;9.50;;;2.60;;
17790;SDS011;9019;48.132;-1.210;2023-12-04T10:51:54;9.33;;;2.60;;
17790;SDS011;9019;48.132;-1.210;2023-12-04T10:54:22;10.53;;;3.10;;
17790;SDS011;9019;48.132;-1.210;2023-12-04T10:56:50;10.43;;;2.90;;
17790;SDS011;9019;48.132;-1.210;2023-12-04T10:59:18;6.73;;;3.30;;
17790;SDS011;9019;48.132;-1.210;2023-12-04T11:01:49;13.93;;;3.97;;
17790;SDS011;9019;48.132;-1.210;2023-12-04T11:04:20;18.50;;;7.23;;
17790;SDS011;9019;48.132;-1.210;2023-12-04T11:06:49;13.20;;;5.80;;
17790;SDS011;9019;48.132;-1.210;2023-12-04T11:09:16;14.60;;;3.60;;
17790;SDS011;9019;48.132;-1.210;2023-12-04T11:11:46;12.73;;;4.40;;
17790;SDS011;9019;48.132;-1.210;2023-12-04T11:14:15;13.07;;;4.60;;
17790;SDS011;9019;48.132;-1.210;2023-12-04T11:16:46;10.97;;;3.00;;
17790;SDS011;9019;48.132;-1.210;2023-12-04T11:19:18;10.13;;;3.37;;
17790;SDS011;9019;48.132;-1.210;2023-12-04T11:21:45;11.03;;;2.93;;
17790;SDS011;9019;48.132;-1.210;2023-12-04T11:24:12;11.50;;;3.20;;
17790;SDS011;9019;48.132;-1.210;2023-12-04T11:26:39;15.53;;;4.13;;
17790;SDS011;9019;48.132;-1.210;2023-12-04T11:29:07;13.10;;;4.27;;
17790;SDS011;9019;48.132;-1.210;2023-12-04T11:31:36;11.97;;;3.50;;
17790;SDS011;9019;48.132;-1.210;2023-12-04T11:34:03;6.90;;;3.17;;
17790;SDS011;9019;48.132;-1.210;2023-12-04T11:36:32;15.00;;;3.87;;
17790;SDS011;9019;48.132;-1.210;2023-12-04T11:39:00;13.83;;;4.03;;
17790;SDS011;9019;48.132;-1.210;2023-12-04T11:41:29;12.10;;;3.60;;
17790;SDS011;9019;48.132;-1.210;2023-12-04T11:43:56;10.23;;;3.07;;
17790;SDS011;9019;48.132;-1.210;2023-12-04T11:46:24;11.87;;;3.17;;
17790;SDS011;9019;48.132;-1.210;2023-12-04T11:48:53;11.50;;;3.40;;
17790;SDS011;9019;48.132;-1.210;2023-12-04T11:54:04;10.90;;;2.57;;
17790;SDS011;9019;48.132;-1.210;2023-12-04T11:56:31;12.37;;;2.87;;
17790;SDS011;9019;48.132;-1.210;2023-12-04T11:59:02;9.53;;;2.60;;
17790;SDS011;9019;48.132;-1.210;2023-12-04T12:01:32;11.00;;;2.33;;
17790;SDS011;9019;48.132;-1.210;2023-12-04T12:03:59;9.17;;;2.23;;
17790;SDS011;9019;48.132;-1.210;2023-12-04T12:06:27;7.50;;;1.97;;
17790;SDS011;9019;48.132;-1.210;2023-12-04T12:08:55;8.63;;;1.90;;
17790;SDS011;9019;48.132;-1.210;2023-12-04T12:11:24;7.80;;;2.30;;
17790;SDS011;9019;48.132;-1.210;2023-12-04T12:13:52;7.77;;;2.40;;
17790;SDS011;9019;48.132;-1.210;2023-12-04T12:16:19;9.20;;;2.47;;
17790;SDS011;9019;48.132;-1.210;2023-12-04T12:18:47;11.17;;;2.40;;
17790;SDS011;9019;48.132;-1.210;2023-12-04T12:21:14;9.77;;;2.40;;
17790;SDS011;9019;48.132;-1.210;2023-12-04T12:23:41;7.07;;;2.30;;
17790;SDS011;9019;48.132;-1.210;2023-12-04T12:26:09;12.10;;;3.70;;
17790;SDS011;9019;48.132;-1.210;2023-12-04T12:28:37;12.07;;;4.73;;
17790;SDS011;9019;48.132;-1.210;2023-12-04T12:31:05;13.07;;;4.33;;
17790;SDS011;9019;48.132;-1.210;2023-12-04T12:33:32;11.20;;;3.90;;
17790;SDS011;9019;48.132;-1.210;2023-12-04T12:35:59;10.40;;;4.10;;
17790;SDS011;9019;48.132;-1.210;2023-12-04T12:38:29;9.90;;;3.10;;
17790;SDS011;9019;48.132;-1.210;2023-12-04T12:40:59;12.03;;;3.00;;
17790;SDS011;9019;48.132;-1.210;2023-12-04T12:43:27;7.40;;;2.67;;
17790;SDS011;9019;48.132;-1.210;2023-12-04T12:45:55;10.47;;;3.03;;
17790;SDS011;9019;48.132;-1.210;2023-12-04T12:48:23;8.67;;;2.20;;
17790;SDS011;9019;48.132;-1.210;2023-12-04T12:50:50;10.37;;;2.70;;
17790;SDS011;9019;48.132;-1.210;2023-12-04T12:53:17;8.60;;;2.70;;
17790;SDS011;9019;48.132;-1.210;2023-12-04T12:55:45;6.67;;;3.20;;
17790;SDS011;9019;48.132;-1.210;2023-12-04T12:58:12;10.27;;;3.30;;
17790;SDS011;9019;48.132;-1.210;2023-12-04T13:00:40;8.87;;;3.87;;
17790;SDS011;9019;48.132;-1.210;2023-12-04T13:03:14;9.80;;;3.13;;
17790;SDS011;9019;48.132;-1.210;2023-12-04T13:05:41;10.80;;;3.80;;
17790;SDS011;9019;48.132;-1.210;2023-12-04T13:08:09;5.77;;;3.13;;
17790;SDS011;9019;48.132;-1.210;2023-12-04T13:10:36;12.83;;;3.90;;
17790;SDS011;9019;48.132;-1.210;2023-12-04T13:13:03;11.60;;;4.00;;
17790;SDS011;9019;48.132;-1.210;2023-12-04T13:15:31;11.30;;;4.20;;
17790;SDS011;9019;48.132;-1.210;2023-12-04T13:17:58;10.83;;;3.53;;
17790;SDS011;9019;48.132;-1.210;2023-12-04T13:20:27;8.87;;;3.67;;
17790;SDS011;9019;48.132;-1.210;2023-12-04T13:22:54;7.10;;;4.10;;
17790;SDS011;9019;48.132;-1.210;2023-12-04T13:25:21;9.93;;;3.43;;
17790;SDS011;9019;48.132;-1.210;2023-12-04T13:27:48;8.03;;;3.07;;
17790;SDS011;9019;48.132;-1.210;2023-12-04T13:30:15;9.77;;;3.20;;
17790;SDS011;9019;48.132;-1.210;2023-12-04T13:32:43;7.43;;;2.97;;
17790;SDS011;9019;48.132;-1.210;2023-12-04T13:35:10;7.53;;;2.27;;
17790;SDS011;9019;48.132;-1.210;2023-12-04T13:37:39;7.13;;;1.67;;
17790;SDS011;9019;48.132;-1.210;2023-12-04T13:40:06;7.30;;;1.50;;
17790;SDS011;9019;48.132;-1.210;2023-12-04T13:42:37;5.73;;;1.70;;
17790;SDS011;9019;48.132;-1.210;2023-12-04T13:45:22;5.13;;;1.10;;
17790;SDS011;9019;48.132;-1.210;2023-12-04T13:47:49;6.80;;;1.50;;
17790;SDS011;9019;48.132;-1.210;2023-12-04T13:50:18;7.13;;;1.57;;
17790;SDS011;9019;48.132;-1.210;2023-12-04T13:52:47;6.80;;;1.10;;
17790;SDS011;9019;48.132;-1.210;2023-12-04T13:55:20;7.50;;;1.50;;
17790;SDS011;9019;48.132;-1.210;2023-12-04T13:58:01;7.80;;;1.20;;
17790;SDS011;9019;48.132;-1.210;2023-12-04T14:00:35;7.87;;;1.50;;
17790;SDS011;9019;48.132;-1.210;2023-12-04T14:03:02;5.83;;;1.63;;
17790;SDS011;9019;48.132;-1.210;2023-12-04T14:05:30;5.63;;;1.30;;
17790;SDS011;9019;48.132;-1.210;2023-12-04T14:07:58;5.90;;;1.17;;
17790;SDS011;9019;48.132;-1.210;2023-12-04T14:10:25;8.00;;;1.20;;
17790;SDS011;9019;48.132;-1.210;2023-12-04T14:12:53;8.33;;;1.20;;
17790;SDS011;9019;48.132;-1.210;2023-12-04T14:15:20;5.17;;;1.13;;
17790;SDS011;9019;48.132;-1.210;2023-12-04T14:17:47;5.70;;;1.20;;
17790;SDS011;9019;48.132;-1.210;2023-12-04T14:20:14;6.73;;;1.30;;
17790;SDS011;9019;48.132;-1.210;2023-12-04T14:22:43;5.47;;;1.37;;
17790;SDS011;9019;48.132;-1.210;2023-12-04T14:25:12;4.30;;;1.10;;
17790;SDS011;9019;48.132;-1.210;2023-12-04T14:27:39;4.50;;;0.90;;
17790;SDS011;9019;48.132;-1.210;2023-12-04T14:30:08;6.77;;;1.43;;
17790;SDS011;9019;48.132;-1.210;2023-12-04T14:32:36;7.47;;;1.10;;
17790;SDS011;9019;48.132;-1.210;2023-12-04T14:35:04;9.63;;;1.40;;
17790;SDS011;9019;48.132;-1.210;2023-12-04T14:37:32;5.00;;;1.30;;
17790;SDS011;9019;48.132;-1.210;2023-12-04T14:39:59;6.07;;;1.10;;
17790;SDS011;9019;48.132;-1.210;2023-12-04T14:42:28;3.47;;;1.00;;
17790;SDS011;9019;48.132;-1.210;2023-12-04T14:44:55;1.97;;;0.80;;
17790;SDS011;9019;48.132;-1.210;2023-12-04T14:47:22;5.07;;;0.80;;
17790;SDS011;9019;48.132;-1.210;2023-12-04T14:49:49;4.07;;;1.00;;